createdAt,value
2023-05-06T00:00:20.066Z,2.30
2023-05-06T00:02:47.263Z,2.80
2023-05-06T00:05:14.373Z,2.75
2023-05-06T00:07:42.018Z,2.88
2023-05-06T00:10:08.959Z,2.67
2023-05-06T00:12:35.612Z,3.05
2023-05-06T00:15:02.536Z,2.88
2023-05-06T00:17:29.283Z,2.65
2023-05-06T00:19:56.203Z,2.60
2023-05-06T00:22:23.115Z,3.17
2023-05-06T00:24:49.739Z,3.30
2023-05-06T00:27:16.385Z,2.70
2023-05-06T00:29:42.906Z,2.53
2023-05-06T00:32:09.654Z,2.78
2023-05-06T00:34:36.499Z,2.83
2023-05-06T00:37:03.261Z,2.38
2023-05-06T00:39:30.523Z,2.65
2023-05-06T00:42:03.615Z,2.58
2023-05-06T00:44:31.912Z,2.50
2023-05-06T00:47:00.868Z,2.28
2023-05-06T00:49:30.187Z,2.38
2023-05-06T00:51:57.763Z,2.42
2023-05-06T00:54:26.285Z,2.50
2023-05-06T00:56:53.403Z,2.50
2023-05-06T00:59:20.137Z,2.30
2023-05-06T01:01:47.164Z,2.40
2023-05-06T01:04:13.803Z,2.33
2023-05-06T01:06:46.555Z,2.40
2023-05-06T01:09:26.064Z,2.58
2023-05-06T01:12:05.982Z,2.38
2023-05-06T01:14:46.800Z,2.58
2023-05-06T01:17:18.236Z,2.83
2023-05-06T01:19:49.679Z,2.50
2023-05-06T01:22:16.998Z,2.35
2023-05-06T01:24:45.283Z,2.83
2023-05-06T01:27:13.445Z,2.78
2023-05-06T01:29:42.847Z,2.58
2023-05-06T01:32:45.332Z,3.22
2023-05-06T01:35:12.062Z,2.80
2023-05-06T01:38:12.203Z,2.60
2023-05-06T01:43:08.661Z,2.40
2023-05-06T01:45:37.711Z,2.92
2023-05-06T01:48:05.533Z,2.83
2023-05-06T01:50:33.086Z,2.65
2023-05-06T01:53:03.603Z,2.97
2023-05-06T01:55:30.144Z,2.70
2023-05-06T01:57:56.853Z,3.10
2023-05-06T02:00:25.082Z,2.97
2023-05-06T02:02:52.030Z,2.85
2023-05-06T02:05:18.807Z,3.05
2023-05-06T02:07:45.615Z,2.78
2023-05-06T02:10:12.370Z,3.03
2023-05-06T02:12:38.895Z,3.25
2023-05-06T02:15:05.971Z,3.05
2023-05-06T02:17:35.867Z,2.75
2023-05-06T02:20:02.397Z,3.08
2023-05-06T02:22:28.910Z,2.80
2023-05-06T02:24:55.444Z,2.95
2023-05-06T02:27:22.151Z,3.30
2023-05-06T02:29:48.803Z,3.40
2023-05-06T02:32:15.440Z,3.33
2023-05-06T02:34:41.950Z,3.00
2023-05-06T02:37:08.473Z,3.63
2023-05-06T02:39:35.092Z,3.65
2023-05-06T02:42:02.570Z,3.38
2023-05-06T02:44:29.302Z,3.00
2023-05-06T02:46:55.885Z,3.42
2023-05-06T02:49:22.425Z,3.38
2023-05-06T02:51:49.066Z,4.38
2023-05-06T02:54:15.601Z,4.25
2023-05-06T02:56:43.377Z,3.67
2023-05-06T02:59:09.963Z,3.67
2023-05-06T03:01:36.476Z,3.55
2023-05-06T03:04:03.754Z,3.33
2023-05-06T03:06:31.701Z,4.18
2023-05-06T03:08:58.302Z,4.05
2023-05-06T03:11:24.914Z,3.92
2023-05-06T03:13:51.538Z,4.15
2023-05-06T03:16:18.172Z,4.10
2023-05-06T03:18:44.890Z,4.07
2023-05-06T03:21:12.645Z,4.70
2023-05-06T03:23:39.279Z,3.60
2023-05-06T03:26:06.018Z,3.92
2023-05-06T03:28:32.743Z,3.38
2023-05-06T03:30:59.510Z,3.03
2023-05-06T03:33:26.147Z,2.78
2023-05-06T03:35:52.649Z,3.10
2023-05-06T03:38:19.191Z,3.22
2023-05-06T03:40:46.157Z,2.63
2023-05-06T03:43:12.735Z,2.67
2023-05-06T03:45:39.306Z,2.50
2023-05-06T03:48:05.932Z,2.85
2023-05-06T03:50:32.656Z,2.88
2023-05-06T03:52:59.327Z,2.80
2023-05-06T03:55:25.883Z,2.88
2023-05-06T03:57:52.419Z,3.05
2023-05-06T04:00:19.064Z,2.42
2023-05-06T04:02:45.737Z,2.42
2023-05-06T04:05:12.592Z,3.03
2023-05-06T04:07:39.305Z,2.42
2023-05-06T04:10:06.749Z,3.00
2023-05-06T04:12:34.324Z,2.85
2023-05-06T04:15:03.319Z,2.10
2023-05-06T04:17:30.096Z,2.70
2023-05-06T04:19:57.727Z,2.88
2023-05-06T04:22:24.316Z,2.78
2023-05-06T04:24:50.849Z,2.85
2023-05-06T04:27:17.480Z,2.63
2023-05-06T04:29:44.020Z,2.75
2023-05-06T04:32:11.844Z,2.75
2023-05-06T04:34:38.446Z,2.88
2023-05-06T04:37:05.689Z,2.58
2023-05-06T04:39:32.573Z,2.42
2023-05-06T04:41:59.079Z,2.65
2023-05-06T04:44:25.653Z,2.45
2023-05-06T04:46:52.300Z,2.95
2023-05-06T04:49:18.815Z,2.78
2023-05-06T04:51:45.551Z,3.03
2023-05-06T04:54:12.074Z,2.45
2023-05-06T04:56:38.595Z,2.78
2023-05-06T04:59:07.679Z,2.78
2023-05-06T05:01:34.419Z,2.80
2023-05-06T05:04:01.027Z,2.72
2023-05-06T05:06:27.566Z,2.92
2023-05-06T05:08:55.314Z,2.42
2023-05-06T05:11:22.017Z,2.47
2023-05-06T05:13:48.572Z,2.90
2023-05-06T05:16:15.230Z,2.92
2023-05-06T05:18:44.484Z,2.58
2023-05-06T05:21:11.223Z,2.67
2023-05-06T05:23:37.866Z,2.63
2023-05-06T05:26:04.501Z,2.78
2023-05-06T05:28:31.254Z,2.67
2023-05-06T05:31:07.314Z,2.47
2023-05-06T06:26:54.411Z,3.05
